Time;durP1;ratioP1;P1;durP2;ratioP2;P2;SDS_P1;SDS_P2;PMS_P1;PMS_P2;Temp;Humidity;BMP_temperature;BMP_pressure;BME280_temperature;BME280_humidity;BME280_pressure;Samples;Min_cycle;Max_cycle;Signal;HPM_P1;HPM_P2
2021/05/10 00:00:08;;;;;;;2.88;2.13;;;19.30;68.10;;;;;;2078184;28;20071;-84
2021/05/10 00:01:10;;;;;;;3.15;2.25;;;19.40;68.20;;;;;;2081131;28;20029;-83
2021/05/10 00:02:11;;;;;;;4.70;2.42;;;19.30;68.10;;;;;;2081127;28;20056;-83
2021/05/10 00:03:11;;;;;;;4.15;2.30;;;19.30;68.10;;;;;;2076083;28;20038;-83
2021/05/10 00:04:12;;;;;;;4.90;2.50;;;19.30;68.10;;;;;;2070004;28;20048;-83
2021/05/10 00:05:13;;;;;;;5.72;2.40;;;19.30;68.10;;;;;;2075833;28;20565;-83
2021/05/10 00:06:14;;;;;;;4.53;2.28;;;19.30;68.20;;;;;;2081299;28;20037;-83
2021/05/10 00:07:15;;;;;;;3.47;2.40;;;19.30;68.20;;;;;;2076844;28;20041;-83
2021/05/10 00:08:16;;;;;;;4.20;2.45;;;19.30;68.30;;;;;;2075437;28;20033;-83
2021/05/10 00:09:17;;;;;;;3.65;2.40;;;19.20;68.90;;;;;;2080064;28;20431;-83
2021/05/10 00:10:17;;;;;;;4.15;2.50;;;19.20;68.30;;;;;;2071922;28;20071;-83
2021/05/10 00:11:18;;;;;;;4.22;2.85;;;19.20;68.30;;;;;;2075860;28;20033;-83
2021/05/10 00:12:19;;;;;;;4.38;2.75;;;19.20;68.40;;;;;;2069545;28;20077;-82
2021/05/10 00:13:20;;;;;;;3.70;2.53;;;19.20;68.40;;;;;;2081390;28;20053;-83
2021/05/10 00:14:38;;;;;;;4.70;2.60;;;19.20;68.40;;;;;;2085780;28;20509;-83
2021/05/10 00:15:38;;;;;;;3.47;2.50;;;19.20;68.50;;;;;;2069726;28;20025;-83
2021/05/10 00:16:39;;;;;;;4.30;2.50;;;19.20;68.50;;;;;;2082458;28;20026;-83
2021/05/10 00:17:40;;;;;;;4.53;2.40;;;19.20;68.50;;;;;;2089309;28;20040;-83
2021/05/10 00:18:40;;;;;;;3.80;2.72;;;19.20;68.50;;;;;;2089135;28;20384;-83
2021/05/10 00:19:41;;;;;;;4.65;2.75;;;19.20;68.50;;;;;;2085731;28;20029;-82
2021/05/10 00:20:43;;;;;;;3.25;2.45;;;19.20;68.60;;;;;;2079291;28;20472;-83
2021/05/10 00:21:44;;;;;;;3.97;2.75;;;19.20;68.60;;;;;;2088773;28;20566;-83
2021/05/10 00:22:45;;;;;;;3.40;2.58;;;19.20;68.60;;;;;;2078431;28;20120;-83
2021/05/10 00:23:45;;;;;;;3.83;2.75;;;19.20;68.50;;;;;;2082511;28;20448;-82
2021/05/10 00:24:46;;;;;;;4.15;2.65;;;19.20;68.50;;;;;;2086829;28;20053;-83
2021/05/10 00:25:47;;;;;;;3.65;2.70;;;19.20;68.50;;;;;;2086876;28;20395;-82
2021/05/10 00:26:48;;;;;;;5.07;2.85;;;19.20;68.50;;;;;;2082786;28;20056;-83
2021/05/10 00:27:48;;;;;;;4.10;2.80;;;19.20;68.60;;;;;;2077637;28;20412;-82
2021/05/10 00:28:49;;;;;;;4.13;2.80;;;19.20;68.60;;;;;;2075452;28;20057;-83
2021/05/10 00:29:49;;;;;;;5.32;2.83;;;19.20;68.50;;;;;;2092103;28;20038;-83
2021/05/10 00:30:50;;;;;;;4.93;2.75;;;19.20;68.60;;;;;;2092948;28;20126;-82
2021/05/10 00:31:51;;;;;;;3.75;2.67;;;19.20;68.60;;;;;;2079454;28;20094;-81
2021/05/10 00:32:52;;;;;;;3.60;2.67;;;19.20;68.50;;;;;;2070940;28;20037;-83
2021/05/10 00:33:52;;;;;;;3.88;2.70;;;19.20;68.60;;;;;;2087929;28;20017;-83
2021/05/10 00:34:53;;;;;;;3.28;2.63;;;19.20;68.60;;;;;;2091176;28;20029;-83
2021/05/10 00:35:54;;;;;;;4.15;2.72;;;19.20;68.60;;;;;;2093347;28;20049;-82
2021/05/10 00:36:54;;;;;;;3.80;2.70;;;19.20;69.20;;;;;;2083785;28;20040;-83
2021/05/10 00:37:55;;;;;;;3.95;2.60;;;19.20;68.60;;;;;;2086258;28;20021;-84
2021/05/10 00:38:56;;;;;;;4.07;2.65;;;19.20;68.60;;;;;;2103478;28;20028;-83
2021/05/10 00:39:56;;;;;;;3.33;2.40;;;19.10;68.70;;;;;;2094766;28;20048;-83
2021/05/10 00:40:57;;;;;;;3.85;2.42;;;19.10;68.70;;;;;;2082121;28;20029;-83
2021/05/10 00:41:58;;;;;;;3.50;2.25;;;19.20;68.80;;;;;;2080335;28;20072;-84
2021/05/10 00:42:59;;;;;;;4.03;2.42;;;19.20;68.90;;;;;;2079856;28;20033;-83
2021/05/10 00:44:00;;;;;;;3.40;2.35;;;19.20;68.80;;;;;;2090959;28;20043;-83
2021/05/10 00:45:01;;;;;;;3.60;2.40;;;19.20;68.80;;;;;;2099464;28;20414;-83
2021/05/10 00:46:02;;;;;;;2.88;2.22;;;19.20;68.80;;;;;;2091538;28;20025;-83
2021/05/10 00:47:03;;;;;;;3.38;2.40;;;19.20;68.80;;;;;;2074433;28;20090;-82
2021/05/10 00:48:04;;;;;;;7.18;2.60;;;19.20;68.80;;;;;;2075251;28;20507;-83
2021/05/10 00:49:05;;;;;;;3.67;2.38;;;19.20;68.80;;;;;;2092122;28;20037;-83
2021/05/10 00:50:07;;;;;;;3.47;2.50;;;19.20;68.80;;;;;;2087651;28;20111;-84
2021/05/10 00:51:08;;;;;;;3.45;2.47;;;19.20;68.80;;;;;;2089587;28;20052;-83
2021/05/10 00:52:10;;;;;;;3.92;2.15;;;19.20;68.80;;;;;;2087253;28;20032;-83
2021/05/10 00:53:10;;;;;;;3.80;2.20;;;19.20;68.90;;;;;;2087440;28;20030;-84
2021/05/10 00:54:11;;;;;;;4.03;2.58;;;19.20;68.90;;;;;;2079795;28;20443;-83
2021/05/10 00:55:13;;;;;;;3.65;2.22;;;19.20;69.00;;;;;;2078902;28;20028;-83
2021/05/10 00:56:15;;;;;;;3.10;2.30;;;19.20;69.10;;;;;;2096220;28;20539;-83
2021/05/10 00:57:16;;;;;;;3.00;2.10;;;19.20;69.20;;;;;;2096802;28;20040;-83
2021/05/10 00:58:17;;;;;;;3.25;2.10;;;19.20;69.20;;;;;;2085798;28;20029;-83
2021/05/10 00:59:17;;;;;;;2.95;2.30;;;19.20;69.30;;;;;;2085613;28;20033;-83
2021/05/10 01:00:21;;;;;;;3.05;2.10;;;19.20;69.40;;;;;;2084777;28;20107;-84
2021/05/10 01:01:22;;;;;;;3.08;2.20;;;19.20;69.50;;;;;;2083862;28;20029;-83
2021/05/10 01:02:23;;;;;;;3.47;2.22;;;19.10;69.60;;;;;;2085143;28;20534;-83
2021/05/10 01:03:25;;;;;;;3.10;2.30;;;19.10;69.60;;;;;;2075462;28;20025;-83
2021/05/10 01:04:25;;;;;;;2.83;2.00;;;19.10;69.80;;;;;;2079923;28;20048;-83
2021/05/10 01:05:26;;;;;;;3.70;2.10;;;19.00;69.70;;;;;;2080787;28;20028;-83
2021/05/10 01:06:27;;;;;;;2.80;2.22;;;19.00;69.80;;;;;;2079633;28;20140;-83
2021/05/10 01:07:28;;;;;;;3.10;2.10;;;19.00;69.90;;;;;;2072293;28;20061;-84
2021/05/10 01:08:28;;;;;;;3.22;2.17;;;19.00;70.00;;;;;;2072835;28;20088;-83
2021/05/10 01:09:29;;;;;;;2.80;2.00;;;19.00;70.00;;;;;;2061463;28;20441;-83
2021/05/10 01:10:29;;;;;;;3.95;2.20;;;19.00;70.00;;;;;;2062720;28;20038;-83
2021/05/10 01:11:30;;;;;;;2.83;2.10;;;19.00;69.90;;;;;;2066447;28;20396;-83
2021/05/10 01:12:31;;;;;;;3.33;2.10;;;19.00;69.90;;;;;;2071378;28;20507;-83
2021/05/10 01:13:32;;;;;;;3.72;2.25;;;19.00;70.50;;;;;;2071839;28;20466;-83
2021/05/10 01:14:34;;;;;;;4.57;2.20;;;19.00;69.90;;;;;;2071032;28;20033;-83
2021/05/10 01:15:35;;;;;;;2.97;2.00;;;19.00;69.90;;;;;;2072036;28;20018;-83
2021/05/10 01:16:36;;;;;;;2.67;2.03;;;19.00;69.90;;;;;;2086474;28;20207;-83
2021/05/10 01:17:40;;;;;;;2.53;1.83;;;19.00;69.90;;;;;;2083908;28;20470;-84
2021/05/10 01:18:41;;;;;;;3.33;2.10;;;19.00;69.90;;;;;;2083644;28;20021;-83
2021/05/10 01:19:42;;;;;;;2.67;2.00;;;19.00;69.90;;;;;;2085938;28;20040;-83
2021/05/10 01:20:46;;;;;;;2.78;2.10;;;19.00;69.80;;;;;;2081440;28;20506;-83
2021/05/10 01:21:48;;;;;;;3.58;2.30;;;19.00;69.70;;;;;;2072837;28;20026;-83
2021/05/10 01:22:54;;;;;;;2.70;2.10;;;19.00;69.70;;;;;;2080680;28;20125;-83
2021/05/10 01:23:56;;;;;;;4.25;2.20;;;19.00;69.60;;;;;;2082435;28;20021;-83
2021/05/10 01:24:57;;;;;;;3.70;2.00;;;19.00;69.60;;;;;;2072479;28;20026;-82
2021/05/10 01:25:58;;;;;;;2.75;1.95;;;19.00;69.50;;;;;;2072676;28;20034;-84
2021/05/10 01:26:59;;;;;;;3.13;1.90;;;19.00;69.50;;;;;;2067994;28;20116;-83
2021/05/10 01:28:00;;;;;;;2.67;2.10;;;19.00;69.40;;;;;;2065488;28;20500;-83
2021/05/10 01:29:00;;;;;;;2.28;1.58;;;19.00;69.40;;;;;;2073626;28;20033;-83
2021/05/10 01:30:11;;;;;;;4.07;2.08;;;19.00;69.30;;;;;;2072256;28;20041;-83
2021/05/10 01:31:15;;;;;;;2.60;2.10;;;19.00;69.40;;;;;;2077736;28;20515;-83
2021/05/10 01:32:16;;;;;;;3.00;2.10;;;19.00;69.30;;;;;;2079454;28;20164;-83
2021/05/10 01:33:21;;;;;;;2.55;1.83;;;19.00;69.20;;;;;;2068923;28;20038;-83
2021/05/10 01:34:21;;;;;;;3.05;1.75;;;19.00;69.10;;;;;;2064793;28;20031;-83
2021/05/10 01:35:26;;;;;;;3.70;1.88;;;19.10;69.10;;;;;;2070487;28;20531;-83
2021/05/10 01:36:27;;;;;;;3.10;1.90;;;19.10;69.00;;;;;;2077150;28;20076;-83
2021/05/10 01:37:27;;;;;;;4.28;1.90;;;19.10;68.90;;;;;;2075177;28;20048;-83
2021/05/10 01:38:28;;;;;;;4.32;1.83;;;19.10;68.90;;;;;;2049566;28;20062;-83
2021/05/10 01:39:28;;;;;;;2.97;1.80;;;19.10;68.80;;;;;;2042816;28;20052;-83
2021/05/10 01:40:30;;;;;;;3.03;1.67;;;19.10;68.80;;;;;;2062355;28;20035;-83
2021/05/10 01:41:30;;;;;;;2.13;1.63;;;19.10;68.80;;;;;;2063484;28;20396;-83
2021/05/10 01:42:31;;;;;;;3.75;2.00;;;19.10;68.80;;;;;;2079484;28;22091;-84
2021/05/10 01:43:32;;;;;;;2.63;1.90;;;19.10;68.80;;;;;;2070037;28;20416;-83
2021/05/10 01:44:32;;;;;;;2.58;1.73;;;19.10;68.80;;;;;;2064265;28;20022;-83
2021/05/10 01:45:34;;;;;;;2.65;1.95;;;19.10;68.80;;;;;;2063630;28;20034;-83
2021/05/10 01:46:34;;;;;;;3.13;1.77;;;19.10;68.80;;;;;;2076924;28;20036;-83
2021/05/10 01:47:35;;;;;;;2.45;1.55;;;19.10;68.80;;;;;;2066847;28;20019;-83
2021/05/10 01:48:36;;;;;;;2.35;1.60;;;19.10;68.90;;;;;;2063716;28;20039;-83
2021/05/10 01:49:36;;;;;;;2.90;1.90;;;19.10;68.90;;;;;;2071955;28;20041;-83
2021/05/10 01:50:40;;;;;;;3.45;2.00;;;19.10;68.90;;;;;;2063597;28;20033;-83
2021/05/10 01:51:40;;;;;;;3.20;1.63;;;19.10;68.90;;;;;;2079868;28;20022;-83
2021/05/10 01:52:41;;;;;;;2.92;1.80;;;19.10;68.90;;;;;;2088617;28;20120;-83
2021/05/10 01:53:45;;;;;;;2.55;1.77;;;19.00;68.90;;;;;;2087434;28;20423;-83
2021/05/10 01:54:53;;;;;;;2.78;1.80;;;19.00;68.90;;;;;;2071634;28;20128;-84
2021/05/10 01:55:53;;;;;;;2.67;1.70;;;19.00;68.90;;;;;;2067764;28;20023;-83
2021/05/10 01:56:54;;;;;;;2.10;1.67;;;19.00;69.10;;;;;;2077839;28;20156;-83
2021/05/10 01:57:57;;;;;;;2.42;1.77;;;19.00;69.20;;;;;;2074844;28;20026;-83
2021/05/10 01:58:58;;;;;;;2.70;1.60;;;19.00;69.20;;;;;;2077995;28;20022;-83
2021/05/10 01:59:59;;;;;;;2.67;1.58;;;18.90;69.30;;;;;;2063176;28;20045;-83
2021/05/10 02:00:59;;;;;;;2.58;1.70;;;18.90;69.40;;;;;;2063198;28;20018;-83
2021/05/10 02:02:00;;;;;;;3.40;1.98;;;18.90;69.50;;;;;;2067900;28;20504;-83
2021/05/10 02:03:05;;;;;;;2.70;1.60;;;18.90;69.60;;;;;;2071622;28;20030;-83
2021/05/10 02:04:06;;;;;;;2.75;1.73;;;18.90;69.70;;;;;;2079545;28;20478;-83
2021/05/10 02:05:20;;;;;;;3.08;1.52;;;18.90;69.70;;;;;;2080128;28;20032;-84
2021/05/10 02:06:21;;;;;;;2.65;1.50;;;18.80;69.80;;;;;;2077514;28;20029;-84
2021/05/10 02:07:21;;;;;;;2.70;1.70;;;18.80;69.80;;;;;;2083247;28;20056;-84
2021/05/10 02:08:22;;;;;;;2.67;1.65;;;18.80;69.90;;;;;;2075046;28;20069;-84
2021/05/10 02:09:23;;;;;;;2.90;1.70;;;18.80;70.10;;;;;;2067609;28;20038;-84
2021/05/10 02:10:25;;;;;;;2.63;1.70;;;18.70;70.10;;;;;;2062684;28;20030;-84
2021/05/10 02:11:26;;;;;;;2.53;1.70;;;18.80;70.30;;;;;;2071537;28;20033;-84
2021/05/10 02:12:26;;;;;;;2.60;1.77;;;18.70;70.30;;;;;;2071665;28;20034;-84
2021/05/10 02:13:27;;;;;;;2.70;1.70;;;18.70;70.30;;;;;;2055605;28;20038;-84
2021/05/10 02:14:31;;;;;;;2.08;1.52;;;18.70;70.30;;;;;;2047940;28;20514;-84
2021/05/10 02:15:40;;;;;;;1.80;1.42;;;18.70;70.40;;;;;;2069273;28;20479;-84
2021/05/10 02:16:41;;;;;;;2.88;1.80;;;18.70;70.40;;;;;;2080417;28;20111;-84
2021/05/10 02:17:41;;;;;;;2.03;1.52;;;18.70;70.50;;;;;;2065796;28;20022;-84
2021/05/10 02:18:42;;;;;;;2.35;1.80;;;18.60;70.40;;;;;;2069085;28;20203;-84
2021/05/10 02:19:43;;;;;;;2.28;1.48;;;18.60;70.50;;;;;;2067046;28;20377;-84
2021/05/10 02:20:45;;;;;;;1.90;1.50;;;18.60;70.50;;;;;;2068147;28;20026;-84
2021/05/10 02:21:45;;;;;;;2.63;1.50;;;18.60;70.60;;;;;;2070152;28;20045;-84
2021/05/10 02:23:09;;;;;;;2.58;1.55;;;18.60;70.70;;;;;;2070408;28;20053;-83
2021/05/10 02:24:09;;;;;;;2.58;1.52;;;18.60;70.80;;;;;;2066483;28;20512;-83
2021/05/10 02:25:23;;;;;;;2.40;1.67;;;18.50;70.80;;;;;;2071401;28;20049;-83
2021/05/10 02:26:24;;;;;;;2.95;1.70;;;18.50;70.90;;;;;;2070326;28;20037;-83
2021/05/10 02:27:24;;;;;;;2.75;1.50;;;18.50;71.00;;;;;;2068289;28;20029;-84
2021/05/10 02:28:27;;;;;;;3.75;1.70;;;18.50;71.00;;;;;;2072440;28;20492;-84
2021/05/10 02:29:28;;;;;;;3.03;1.60;;;18.50;71.00;;;;;;2076117;28;20064;-84
2021/05/10 02:30:30;;;;;;;2.50;1.60;;;18.50;71.00;;;;;;2076620;28;20025;-84
2021/05/10 02:31:31;;;;;;;2.28;1.63;;;18.40;70.90;;;;;;2072446;28;20468;-84
2021/05/10 02:32:31;;;;;;;2.67;1.40;;;18.50;71.00;;;;;;2072394;28;20081;-84
2021/05/10 02:33:33;;;;;;;1.90;1.50;;;18.50;70.90;;;;;;2062464;28;20420;-84
2021/05/10 02:34:34;;;;;;;2.22;1.80;;;18.40;70.90;;;;;;2065697;28;20049;-84
2021/05/10 02:35:36;;;;;;;2.75;1.60;;;18.40;70.90;;;;;;2067047;28;20034;-84
2021/05/10 02:36:36;;;;;;;2.63;1.60;;;18.40;70.90;;;;;;2072706;28;20026;-84
2021/05/10 02:37:37;;;;;;;3.08;1.50;;;18.40;71.00;;;;;;2078415;28;20112;-83
2021/05/10 02:38:38;;;;;;;3.20;1.52;;;18.40;71.10;;;;;;2069609;28;20525;-83
2021/05/10 02:39:39;;;;;;;2.30;1.55;;;18.40;71.10;;;;;;2066995;28;20477;-83
2021/05/10 02:40:40;;;;;;;2.17;1.48;;;18.40;71.10;;;;;;2062909;28;20037;-83
2021/05/10 02:41:41;;;;;;;3.20;1.58;;;18.40;71.10;;;;;;2057872;28;20030;-84
2021/05/10 02:42:42;;;;;;;2.50;1.67;;;18.40;71.10;;;;;;2057471;28;20030;-83
2021/05/10 02:43:43;;;;;;;3.13;1.63;;;18.40;71.10;;;;;;2065849;28;20030;-84
2021/05/10 02:44:43;;;;;;;2.15;1.60;;;18.40;71.10;;;;;;2062916;28;20042;-83
2021/05/10 02:45:45;;;;;;;3.55;1.60;;;18.40;71.10;;;;;;2056171;28;20019;-83
2021/05/10 02:46:45;;;;;;;2.13;1.48;;;18.40;71.10;;;;;;2070247;28;20057;-83
2021/05/10 02:47:47;;;;;;;2.63;1.50;;;18.40;71.10;;;;;;2069030;28;20037;-83
2021/05/10 02:48:47;;;;;;;1.83;1.60;;;18.40;71.10;;;;;;2054153;28;20043;-83
2021/05/10 02:49:48;;;;;;;2.60;1.65;;;18.40;71.80;;;;;;2067474;28;20026;-84
2021/05/10 02:50:49;;;;;;;2.20;1.60;;;18.40;71.20;;;;;;2063701;28;20026;-84
2021/05/10 02:51:49;;;;;;;2.65;1.67;;;18.40;71.10;;;;;;2071088;28;20050;-83
2021/05/10 02:52:51;;;;;;;2.50;1.52;;;18.40;71.10;;;;;;2082977;28;20025;-83
2021/05/10 02:53:52;;;;;;;2.97;1.60;;;18.40;71.00;;;;;;2079098;28;20494;-83
2021/05/10 02:54:52;;;;;;;2.47;1.80;;;18.40;70.90;;;;;;2072955;28;20033;-84
2021/05/10 02:55:53;;;;;;;2.17;1.55;;;18.40;70.80;;;;;;2069727;28;20030;-84
2021/05/10 02:56:53;;;;;;;3.58;1.42;;;18.40;70.70;;;;;;2065258;28;20377;-84
2021/05/10 02:57:54;;;;;;;2.50;1.48;;;18.40;70.70;;;;;;2069260;28;20110;-84
2021/05/10 02:58:55;;;;;;;2.97;1.60;;;18.40;70.60;;;;;;2065199;28;20034;-84
2021/05/10 02:59:56;;;;;;;1.50;1.30;;;18.40;70.40;;;;;;2073587;28;20078;-83
2021/05/10 03:00:57;;;;;;;2.15;1.40;;;18.40;70.30;;;;;;2065402;28;20471;-84
2021/05/10 03:01:57;;;;;;;2.33;1.25;;;18.50;70.30;;;;;;2056122;28;20019;-83
2021/05/10 03:02:58;;;;;;;2.15;1.35;;;18.50;70.10;;;;;;2057200;28;20062;-83
2021/05/10 03:03:59;;;;;;;2.35;1.20;;;18.50;70.00;;;;;;2066808;28;20503;-84
2021/05/10 03:05:00;;;;;;;2.25;1.30;;;18.50;69.90;;;;;;2073566;28;20037;-84
2021/05/10 03:06:00;;;;;;;1.73;1.10;;;18.50;69.90;;;;;;2072483;28;20033;-84
2021/05/10 03:07:01;;;;;;;2.17;1.30;;;18.60;69.80;;;;;;2084697;28;20049;-84
2021/05/10 03:08:02;;;;;;;2.35;1.40;;;18.60;69.70;;;;;;2072338;28;20026;-84
2021/05/10 03:09:03;;;;;;;2.33;1.40;;;18.60;69.60;;;;;;2071221;28;20116;-84
2021/05/10 03:10:06;;;;;;;2.28;1.10;;;18.60;69.50;;;;;;2078703;28;20029;-84
2021/05/10 03:11:07;;;;;;;2.03;1.20;;;18.60;69.40;;;;;;2078864;28;20054;-84
2021/05/10 03:12:08;;;;;;;2.00;1.30;;;18.60;69.40;;;;;;2081543;28;20038;-84
2021/05/10 03:13:09;;;;;;;1.70;1.20;;;18.60;69.40;;;;;;2073287;28;20056;-84
2021/05/10 03:14:10;;;;;;;2.58;1.10;;;18.60;69.30;;;;;;2070750;28;20092;-85
2021/05/10 03:15:15;;;;;;;3.53;1.10;;;18.60;69.30;;;;;;2068813;28;20027;-83
2021/05/10 03:16:16;;;;;;;1.85;1.20;;;18.60;69.20;;;;;;2087434;28;20037;-84
2021/05/10 03:17:17;;;;;;;1.90;1.27;;;18.60;69.20;;;;;;2089826;28;20029;-83
2021/05/10 03:18:17;;;;;;;2.60;1.40;;;18.60;69.00;;;;;;2072812;28;20025;-83
2021/05/10 03:19:19;;;;;;;2.55;1.08;;;18.60;69.00;;;;;;2057354;28;20077;-83
2021/05/10 03:20:22;;;;;;;3.15;1.30;;;18.60;69.00;;;;;;2061532;28;20023;-84
2021/05/10 03:21:23;;;;;;;1.75;1.10;;;18.60;69.00;;;;;;2071461;28;20068;-83
2021/05/10 03:22:24;;;;;;;2.50;1.10;;;18.60;69.00;;;;;;2071629;28;20026;-83
2021/05/10 03:23:24;;;;;;;1.30;1.00;;;18.60;69.00;;;;;;2079051;28;20061;-84
2021/05/10 03:24:25;;;;;;;1.70;1.10;;;18.60;69.20;;;;;;2096256;28;20032;-84
2021/05/10 03:25:26;;;;;;;2.97;1.13;;;18.50;69.20;;;;;;2069225;28;20050;-83
2021/05/10 03:26:26;;;;;;;1.77;1.10;;;18.50;69.20;;;;;;2056916;28;20054;-83
2021/05/10 03:27:27;;;;;;;4.47;1.30;;;18.50;69.20;;;;;;2069301;28;20410;-83
2021/05/10 03:28:28;;;;;;;2.47;1.10;;;18.40;69.20;;;;;;2079813;28;20080;-84
2021/05/10 03:29:28;;;;;;;1.40;1.00;;;18.40;69.80;;;;;;2087329;28;20290;-83
2021/05/10 03:30:29;;;;;;;1.80;1.02;;;18.40;69.20;;;;;;2080822;28;20225;-83
2021/05/10 03:31:30;;;;;;;1.20;0.93;;;18.30;69.10;;;;;;2062596;28;20142;-84
2021/05/10 03:32:31;;;;;;;1.80;0.95;;;18.40;69.10;;;;;;2072602;28;20058;-83
2021/05/10 03:33:31;;;;;;;0.95;0.82;;;18.30;69.10;;;;;;2073346;28;20264;-83
2021/05/10 03:34:32;;;;;;;2.13;1.00;;;18.30;69.00;;;;;;2063765;28;20125;-83
2021/05/10 03:35:33;;;;;;;2.67;0.90;;;18.30;69.60;;;;;;2072386;28;20121;-84
2021/05/10 03:36:34;;;;;;;1.42;0.80;;;18.30;68.90;;;;;;2080909;28;20048;-83
2021/05/10 03:37:35;;;;;;;3.00;1.10;;;18.30;68.90;;;;;;2065634;28;20041;-83
2021/05/10 03:38:35;;;;;;;0.95;0.68;;;18.30;68.80;;;;;;2070681;28;20033;-83
2021/05/10 03:39:36;;;;;;;1.23;0.65;;;18.30;68.70;;;;;;2094578;28;20063;-84
2021/05/10 03:40:36;;;;;;;2.65;0.80;;;18.30;68.60;;;;;;2090264;28;20017;-84
2021/05/10 03:41:37;;;;;;;0.95;0.65;;;18.30;68.50;;;;;;2091007;28;20106;-83
2021/05/10 03:42:39;;;;;;;1.83;0.75;;;18.30;68.40;;;;;;2078400;28;20435;-83
2021/05/10 03:43:39;;;;;;;1.10;0.70;;;18.30;69.00;;;;;;2074634;28;20037;-83
2021/05/10 03:44:40;;;;;;;2.05;0.77;;;18.30;68.30;;;;;;2078611;28;20490;-83
2021/05/10 03:45:40;;;;;;;1.48;0.63;;;18.30;68.10;;;;;;2073698;28;20029;-83
2021/05/10 03:46:41;;;;;;;1.83;0.70;;;18.40;68.10;;;;;;2080340;28;20479;-83
2021/05/10 03:47:43;;;;;;;1.05;0.63;;;18.40;68.00;;;;;;2085403;28;20128;-83
2021/05/10 03:48:44;;;;;;;1.10;0.70;;;18.40;67.90;;;;;;2085994;28;20072;-83
2021/05/10 03:49:44;;;;;;;1.20;0.73;;;18.40;67.70;;;;;;2083867;28;20395;-83
2021/05/10 03:50:45;;;;;;;1.45;0.70;;;18.40;67.60;;;;;;2080647;28;20037;-83
2021/05/10 03:51:45;;;;;;;1.30;0.75;;;18.40;67.60;;;;;;2078594;28;20025;-84
2021/05/10 03:52:48;;;;;;;1.27;0.60;;;18.40;67.50;;;;;;2081442;28;20420;-84
2021/05/10 03:53:49;;;;;;;2.45;0.70;;;18.40;67.50;;;;;;2089619;28;20491;-84
2021/05/10 03:54:49;;;;;;;0.75;0.70;;;18.40;67.40;;;;;;2086613;28;20033;-83
2021/05/10 03:55:51;;;;;;;0.98;0.60;;;18.40;67.30;;;;;;2072267;28;20033;-83
2021/05/10 03:56:51;;;;;;;1.17;0.60;;;18.40;67.30;;;;;;2081423;28;20025;-83
2021/05/10 03:57:53;;;;;;;1.30;0.77;;;18.40;67.20;;;;;;2077488;28;20032;-84
2021/05/10 03:58:54;;;;;;;2.13;0.70;;;18.40;67.20;;;;;;2076568;28;20420;-83
2021/05/10 03:59:54;;;;;;;1.58;0.65;;;18.40;67.10;;;;;;2068893;28;20036;-83
2021/05/10 04:00:55;;;;;;;1.90;0.70;;;18.40;66.90;;;;;;2069217;28;20594;-83
2021/05/10 04:01:58;;;;;;;1.65;0.60;;;18.50;67.00;;;;;;2075862;28;20030;-83
2021/05/10 04:03:00;;;;;;;1.48;0.60;;;18.50;66.90;;;;;;2079015;28;20504;-82
2021/05/10 04:05:34;;;;;;;1.35;0.60;;;18.60;67.20;;;;;;2069118;28;20566;-83
2021/05/10 04:11:10;;;;;;;1.33;0.52;;;18.60;65.60;;;;;;2081500;28;20436;-84
2021/05/10 04:13:38;;;;;;;2.38;0.75;;;18.70;65.30;;;;;;2069735;28;20050;-83
2021/05/10 04:14:39;;;;;;;1.27;0.60;;;18.70;65.10;;;;;;2083235;28;20025;-83
2021/05/10 04:15:40;;;;;;;1.65;0.60;;;18.80;64.90;;;;;;2081164;28;20459;-84
2021/05/10 04:16:40;;;;;;;2.28;0.60;;;18.80;64.70;;;;;;2070623;28;20094;-83
2021/05/10 04:17:41;;;;;;;1.80;0.55;;;18.80;64.70;;;;;;2069630;28;20129;-83
2021/05/10 04:18:41;;;;;;;0.45;0.40;;;18.90;64.40;;;;;;2071502;28;20025;-84
2021/05/10 04:19:42;;;;;;;1.30;0.60;;;18.90;64.30;;;;;;2067429;28;20048;-84
2021/05/10 04:20:43;;;;;;;0.98;0.50;;;18.90;64.10;;;;;;2082851;28;20032;-84
2021/05/10 04:21:44;;;;;;;1.38;0.70;;;18.90;63.70;;;;;;2072399;28;20124;-82
2021/05/10 04:22:44;;;;;;;2.40;0.75;;;19.00;63.50;;;;;;2072088;28;20025;-83
2021/05/10 04:23:45;;;;;;;1.73;0.82;;;19.00;63.60;;;;;;2069290;28;20381;-82
2021/05/10 04:24:46;;;;;;;2.55;0.90;;;19.00;63.30;;;;;;2073380;28;20026;-83
2021/05/10 04:25:48;;;;;;;1.38;0.63;;;19.00;63.00;;;;;;2080198;28;20034;-83
2021/05/10 04:26:48;;;;;;;2.90;1.13;;;19.10;63.00;;;;;;2091901;28;20087;-82
2021/05/10 04:27:49;;;;;;;1.33;0.70;;;19.10;62.90;;;;;;2094524;28;20063;-82
2021/05/10 04:28:50;;;;;;;1.23;0.60;;;19.10;62.90;;;;;;2080444;28;20415;-83
2021/05/10 04:29:50;;;;;;;1.00;0.50;;;19.10;62.50;;;;;;2071994;28;20424;-82
2021/05/10 04:30:52;;;;;;;1.48;0.60;;;19.10;62.40;;;;;;2076635;28;20037;-83
2021/05/10 04:31:53;;;;;;;0.90;0.65;;;19.20;62.40;;;;;;2076461;28;20022;-83
2021/05/10 04:32:58;;;;;;;1.17;0.50;;;19.20;62.30;;;;;;2085265;28;20588;-83
2021/05/10 04:33:58;;;;;;;0.55;0.40;;;19.20;62.20;;;;;;2077083;28;20031;-82
2021/05/10 04:34:59;;;;;;;1.90;0.70;;;19.20;62.20;;;;;;2076753;28;20040;-82
2021/05/10 04:36:01;;;;;;;2.45;0.50;;;19.20;62.10;;;;;;2072533;28;20026;-83
2021/05/10 04:37:01;;;;;;;1.15;0.60;;;19.20;62.00;;;;;;2060819;28;20516;-83
2021/05/10 04:38:08;;;;;;;0.98;0.50;;;19.30;61.90;;;;;;2085175;28;20022;-82
2021/05/10 04:39:09;;;;;;;1.58;0.60;;;19.30;61.80;;;;;;2078906;28;20052;-83
2021/05/10 04:40:10;;;;;;;1.45;0.60;;;19.30;61.50;;;;;;2061204;28;20117;-83
2021/05/10 04:41:11;;;;;;;2.60;0.63;;;19.30;61.30;;;;;;2063727;28;20030;-83
2021/05/10 04:42:12;;;;;;;1.08;0.50;;;19.40;61.20;;;;;;2072220;28;20030;-82
2021/05/10 04:43:13;;;;;;;0.77;0.50;;;19.40;61.10;;;;;;2064359;28;20030;-82
2021/05/10 04:44:15;;;;;;;2.40;0.60;;;19.40;61.10;;;;;;2080628;28;20025;-82
2021/05/10 04:45:16;;;;;;;0.80;0.50;;;19.40;61.00;;;;;;2080160;28;20112;-83
2021/05/10 04:46:18;;;;;;;1.45;0.60;;;19.40;60.80;;;;;;2069874;28;20057;-83
2021/05/10 04:47:18;;;;;;;1.83;0.70;;;19.40;60.70;;;;;;2088419;28;20017;-83
2021/05/10 04:48:19;;;;;;;0.95;0.50;;;19.50;60.50;;;;;;2092933;28;20154;-83
2021/05/10 04:49:19;;;;;;;1.48;0.50;;;19.50;60.50;;;;;;2076740;28;20022;-83
2021/05/10 04:50:20;;;;;;;1.83;0.50;;;19.50;60.40;;;;;;2056866;28;20026;-83
2021/05/10 04:51:21;;;;;;;1.80;0.57;;;19.50;60.30;;;;;;2064154;28;20484;-83
2021/05/10 04:52:21;;;;;;;1.05;0.47;;;19.50;60.20;;;;;;2076504;28;20029;-83
2021/05/10 04:53:22;;;;;;;1.33;0.60;;;19.60;60.10;;;;;;2080247;28;20082;-83
2021/05/10 04:54:22;;;;;;;1.70;0.55;;;19.60;60.40;;;;;;2071508;28;20121;-83
2021/05/10 04:55:23;;;;;;;1.15;0.55;;;19.60;59.70;;;;;;2063678;28;20476;-83
2021/05/10 04:56:24;;;;;;;1.13;0.50;;;19.70;59.40;;;;;;2070743;28;20026;-83
2021/05/10 04:57:24;;;;;;;2.40;0.73;;;19.70;60.00;;;;;;2076895;28;20037;-83
2021/05/10 04:58:25;;;;;;;1.73;0.50;;;19.70;59.40;;;;;;2072049;28;20492;-83
2021/05/10 04:59:25;;;;;;;2.95;0.68;;;19.70;59.30;;;;;;2071744;28;20026;-82
2021/05/10 05:00:26;;;;;;;1.80;0.70;;;19.70;59.20;;;;;;2088094;28;20033;-83
2021/05/10 05:01:27;;;;;;;4.35;0.90;;;19.70;59.30;;;;;;2084306;28;20064;-83
2021/05/10 05:02:27;;;;;;;2.47;0.70;;;19.70;59.30;;;;;;2079818;28;20392;-83
2021/05/10 05:03:28;;;;;;;2.08;0.70;;;19.70;59.10;;;;;;2061961;28;20042;-82
2021/05/10 05:04:29;;;;;;;2.40;0.77;;;19.70;59.10;;;;;;2066641;28;20080;-82
2021/05/10 05:05:30;;;;;;;1.45;0.50;;;19.70;59.10;;;;;;2079816;28;20048;-83
2021/05/10 05:06:31;;;;;;;3.08;0.75;;;19.70;59.20;;;;;;2089691;28;20032;-82
2021/05/10 05:07:31;;;;;;;1.75;0.60;;;19.70;59.20;;;;;;2087948;28;20414;-83
2021/05/10 05:08:32;;;;;;;2.55;0.80;;;19.70;59.20;;;;;;2085724;28;20037;-83
2021/05/10 05:09:33;;;;;;;1.58;0.52;;;19.70;59.20;;;;;;2087287;28;20053;-82
2021/05/10 05:10:33;;;;;;;1.70;0.60;;;19.70;59.30;;;;;;2079816;28;20063;-82
2021/05/10 05:11:34;;;;;;;1.20;0.47;;;19.70;59.30;;;;;;2079583;28;20152;-82
2021/05/10 05:12:37;;;;;;;1.42;0.65;;;19.60;59.20;;;;;;2093471;28;20028;-82
2021/05/10 05:13:39;;;;;;;2.13;0.60;;;19.70;59.30;;;;;;2089877;28;20028;-82
2021/05/10 05:14:39;;;;;;;1.58;0.60;;;19.70;59.30;;;;;;2083562;28;20116;-82
2021/05/10 05:15:40;;;;;;;1.58;0.60;;;19.70;59.30;;;;;;2075268;28;20034;-82
2021/05/10 05:16:40;;;;;;;1.45;0.50;;;19.70;59.40;;;;;;2071796;28;20112;-83
2021/05/10 05:17:41;;;;;;;0.95;0.70;;;19.70;59.40;;;;;;2074601;28;20032;-82
2021/05/10 05:18:42;;;;;;;1.38;0.50;;;19.60;59.20;;;;;;2093004;28;20040;-82
2021/05/10 05:19:42;;;;;;;1.65;0.60;;;19.60;59.30;;;;;;2085569;28;20120;-82
2021/05/10 05:20:43;;;;;;;1.52;0.80;;;19.60;59.30;;;;;;2080011;28;20052;-83
2021/05/10 05:21:44;;;;;;;1.70;0.60;;;19.60;59.30;;;;;;2076592;28;20116;-82
2021/05/10 05:22:44;;;;;;;1.48;0.60;;;19.60;59.30;;;;;;2067557;28;20030;-83
2021/05/10 05:23:45;;;;;;;2.13;0.60;;;19.60;59.30;;;;;;2076944;28;20029;-82
2021/05/10 05:24:46;;;;;;;1.55;0.70;;;19.60;59.40;;;;;;2083870;28;20433;-83
2021/05/10 05:25:47;;;;;;;1.58;0.60;;;19.70;59.50;;;;;;2076220;28;20061;-83
2021/05/10 05:26:48;;;;;;;1.60;0.65;;;19.70;59.50;;;;;;2075187;28;20536;-83